Olalla Valley, Washington
Current Conditions -  °F | °C
As of 9:55 PM on Sunday 19 Oct 2014 (Local Time) from KPWT Reporting Station
Overcast Overcast  
Wind Chill: 59°   Ceiling: 6500
Heat Index: 59°   Visibility: 10mi
Dew Point: 55°   Wind: 7mph
Humidity: 88%   Direction: 230°SW
Pressure: 29.72"   Gusts: NA
Location:  47.4285°N, 122.573°W
Report Text: KPWT 200455Z AUTO 23006KT 10SM OVC065 15/13 A2972 RMK AO1
Loading
Personal Weather Stations






























Interactive Weather Map
Tropical Storm Tracking
New forecast layout! Learn more

10-Day Weather Forecast

Advertisements
Track Severe Weather on mobile